sensor_id;sensor_type;location;lat;lon;timestamp;temperature;humidity
35373;DHT22;21476;51.652;7.852;2023-02-13T00:00:27;7.90;99.90
35373;DHT22;21476;51.652;7.852;2023-02-13T00:02:52;7.90;99.90
35373;DHT22;21476;51.652;7.852;2023-02-13T00:05:18;7.90;99.90
35373;DHT22;21476;51.652;7.852;2023-02-13T00:07:44;7.90;99.90
35373;DHT22;21476;51.652;7.852;2023-02-13T00:10:10;7.90;99.90
35373;DHT22;21476;51.652;7.852;2023-02-13T00:12:36;7.90;99.90
35373;DHT22;21476;51.652;7.852;2023-02-13T00:15:02;7.80;99.90
35373;DHT22;21476;51.652;7.852;2023-02-13T00:17:28;7.80;99.90
35373;DHT22;21476;51.652;7.852;2023-02-13T00:19:53;7.90;99.90
35373;DHT22;21476;51.652;7.852;2023-02-13T00:22:19;7.80;99.90
35373;DHT22;21476;51.652;7.852;2023-02-13T00:24:45;7.80;99.90
35373;DHT22;21476;51.652;7.852;2023-02-13T00:27:10;7.70;99.90
35373;DHT22;21476;51.652;7.852;2023-02-13T00:29:36;7.70;99.90
35373;DHT22;21476;51.652;7.852;2023-02-13T00:32:02;7.80;99.90
35373;DHT22;21476;51.652;7.852;2023-02-13T00:34:27;7.80;99.90
35373;DHT22;21476;51.652;7.852;2023-02-13T00:36:53;7.80;99.90
35373;DHT22;21476;51.652;7.852;2023-02-13T00:39:18;7.80;99.90
35373;DHT22;21476;51.652;7.852;2023-02-13T00:41:44;7.80;99.90
35373;DHT22;21476;51.652;7.852;2023-02-13T00:44:10;7.70;99.90
35373;DHT22;21476;51.652;7.852;2023-02-13T00:46:37;7.70;99.90
35373;DHT22;21476;51.652;7.852;2023-02-13T00:49:03;7.70;99.90
35373;DHT22;21476;51.652;7.852;2023-02-13T00:51:29;7.60;99.90
35373;DHT22;21476;51.652;7.852;2023-02-13T00:53:55;7.60;99.90
35373;DHT22;21476;51.652;7.852;2023-02-13T00:56:20;7.60;99.90
35373;DHT22;21476;51.652;7.852;2023-02-13T00:58:46;7.60;99.90
35373;DHT22;21476;51.652;7.852;2023-02-13T01:01:12;7.60;99.90
35373;DHT22;21476;51.652;7.852;2023-02-13T01:03:37;7.60;99.90
35373;DHT22;21476;51.652;7.852;2023-02-13T01:06:04;7.60;99.90
35373;DHT22;21476;51.652;7.852;2023-02-13T01:08:29;7.60;99.90
35373;DHT22;21476;51.652;7.852;2023-02-13T01:10:55;7.70;99.90
35373;DHT22;21476;51.652;7.852;2023-02-13T01:13:21;7.70;99.90
35373;DHT22;21476;51.652;7.852;2023-02-13T01:15:47;7.70;99.90
35373;DHT22;21476;51.652;7.852;2023-02-13T01:18:15;7.70;99.90
35373;DHT22;21476;51.652;7.852;2023-02-13T01:20:42;7.70;99.90
35373;DHT22;21476;51.652;7.852;2023-02-13T01:23:08;7.70;99.90
35373;DHT22;21476;51.652;7.852;2023-02-13T01:25:34;7.70;99.90
35373;DHT22;21476;51.652;7.852;2023-02-13T01:27:59;7.60;99.90
35373;DHT22;21476;51.652;7.852;2023-02-13T01:30:25;7.70;99.90
35373;DHT22;21476;51.652;7.852;2023-02-13T01:32:51;7.80;99.90
35373;DHT22;21476;51.652;7.852;2023-02-13T01:35:16;7.70;99.90
35373;DHT22;21476;51.652;7.852;2023-02-13T01:37:42;7.70;99.90
35373;DHT22;21476;51.652;7.852;2023-02-13T01:40:11;7.60;99.90
35373;DHT22;21476;51.652;7.852;2023-02-13T01:42:38;7.70;99.90
35373;DHT22;21476;51.652;7.852;2023-02-13T01:45:17;7.60;99.90
35373;DHT22;21476;51.652;7.852;2023-02-13T01:47:47;7.60;99.90
35373;DHT22;21476;51.652;7.852;2023-02-13T01:50:42;7.60;99.90
35373;DHT22;21476;51.652;7.852;2023-02-13T01:55:55;7.60;99.90
35373;DHT22;21476;51.652;7.852;2023-02-13T01:58:25;7.60;99.90
35373;DHT22;21476;51.652;7.852;2023-02-13T02:00:52;7.60;99.90
35373;DHT22;21476;51.652;7.852;2023-02-13T02:05:48;7.60;99.90
35373;DHT22;21476;51.652;7.852;2023-02-13T02:08:15;7.60;99.90
35373;DHT22;21476;51.652;7.852;2023-02-13T02:10:42;7.50;99.90
35373;DHT22;21476;51.652;7.852;2023-02-13T02:13:12;7.50;99.90
35373;DHT22;21476;51.652;7.852;2023-02-13T02:15:40;7.60;99.90
35373;DHT22;21476;51.652;7.852;2023-02-13T02:18:24;7.60;99.90
35373;DHT22;21476;51.652;7.852;2023-02-13T02:29:20;7.50;99.90
35373;DHT22;21476;51.652;7.852;2023-02-13T02:43:11;7.60;99.90
35373;DHT22;21476;51.652;7.852;2023-02-13T02:51:47;7.50;99.90
35373;DHT22;21476;51.652;7.852;2023-02-13T02:54:39;7.50;99.90
35373;DHT22;21476;51.652;7.852;2023-02-13T02:57:28;7.60;99.90
35373;DHT22;21476;51.652;7.852;2023-02-13T03:00:16;7.50;99.90
35373;DHT22;21476;51.652;7.852;2023-02-13T03:03:04;7.50;99.90
35373;DHT22;21476;51.652;7.852;2023-02-13T03:05:50;7.50;99.90
35373;DHT22;21476;51.652;7.852;2023-02-13T03:08:36;7.60;99.90
35373;DHT22;21476;51.652;7.852;2023-02-13T03:11:20;7.60;99.90
35373;DHT22;21476;51.652;7.852;2023-02-13T03:14:06;7.70;99.90
35373;DHT22;21476;51.652;7.852;2023-02-13T03:16:33;7.70;99.90
35373;DHT22;21476;51.652;7.852;2023-02-13T03:19:45;7.70;99.90
35373;DHT22;21476;51.652;7.852;2023-02-13T03:22:44;7.60;99.90
35373;DHT22;21476;51.652;7.852;2023-02-13T03:28:11;7.60;99.90
35373;DHT22;21476;51.652;7.852;2023-02-13T03:39:22;7.40;99.90
35373;DHT22;21476;51.652;7.852;2023-02-13T03:41:59;7.50;99.90
35373;DHT22;21476;51.652;7.852;2023-02-13T03:44:32;7.50;99.90
35373;DHT22;21476;51.652;7.852;2023-02-13T03:47:00;7.40;99.90
35373;DHT22;21476;51.652;7.852;2023-02-13T03:49:34;7.40;99.90
35373;DHT22;21476;51.652;7.852;2023-02-13T03:53:00;7.40;99.90
35373;DHT22;21476;51.652;7.852;2023-02-13T03:55:35;7.40;99.90
35373;DHT22;21476;51.652;7.852;2023-02-13T03:58:23;7.40;99.90
35373;DHT22;21476;51.652;7.852;2023-02-13T04:01:12;7.40;99.90
35373;DHT22;21476;51.652;7.852;2023-02-13T04:03:49;7.50;99.90
35373;DHT22;21476;51.652;7.852;2023-02-13T04:06:29;7.60;99.90
35373;DHT22;21476;51.652;7.852;2023-02-13T04:08:55;7.70;99.90
35373;DHT22;21476;51.652;7.852;2023-02-13T04:14:10;7.60;99.90
35373;DHT22;21476;51.652;7.852;2023-02-13T04:16:51;7.60;99.90
35373;DHT22;21476;51.652;7.852;2023-02-13T04:19:18;7.60;99.90
35373;DHT22;21476;51.652;7.852;2023-02-13T04:21:48;7.70;99.90
35373;DHT22;21476;51.652;7.852;2023-02-13T04:24:20;7.70;99.90
35373;DHT22;21476;51.652;7.852;2023-02-13T04:26:45;7.70;99.90
35373;DHT22;21476;51.652;7.852;2023-02-13T04:29:11;7.50;99.90
35373;DHT22;21476;51.652;7.852;2023-02-13T04:31:37;7.50;99.90
35373;DHT22;21476;51.652;7.852;2023-02-13T04:34:02;7.50;99.90
35373;DHT22;21476;51.652;7.852;2023-02-13T04:36:28;7.60;99.90
35373;DHT22;21476;51.652;7.852;2023-02-13T04:38:54;7.50;99.90
35373;DHT22;21476;51.652;7.852;2023-02-13T04:41:19;7.50;99.90
35373;DHT22;21476;51.652;7.852;2023-02-13T04:43:45;7.50;99.90
35373;DHT22;21476;51.652;7.852;2023-02-13T04:46:10;7.50;99.90
35373;DHT22;21476;51.652;7.852;2023-02-13T04:48:36;7.50;99.90
35373;DHT22;21476;51.652;7.852;2023-02-13T04:51:01;7.50;99.90
35373;DHT22;21476;51.652;7.852;2023-02-13T04:53:27;7.50;99.90
35373;DHT22;21476;51.652;7.852;2023-02-13T04:55:53;7.50;99.90
35373;DHT22;21476;51.652;7.852;2023-02-13T04:58:18;7.50;99.90
35373;DHT22;21476;51.652;7.852;2023-02-13T05:00:44;7.40;99.90
35373;DHT22;21476;51.652;7.852;2023-02-13T05:03:11;7.40;99.90
35373;DHT22;21476;51.652;7.852;2023-02-13T05:05:38;7.50;99.90
35373;DHT22;21476;51.652;7.852;2023-02-13T05:08:05;7.50;99.90
35373;DHT22;21476;51.652;7.852;2023-02-13T05:10:31;7.50;99.90
35373;DHT22;21476;51.652;7.852;2023-02-13T05:12:56;7.60;99.90
35373;DHT22;21476;51.652;7.852;2023-02-13T05:15:22;7.40;99.90
35373;DHT22;21476;51.652;7.852;2023-02-13T05:17:48;7.40;99.90
35373;DHT22;21476;51.652;7.852;2023-02-13T05:20:14;7.40;99.90
35373;DHT22;21476;51.652;7.852;2023-02-13T05:22:49;7.40;99.90
35373;DHT22;21476;51.652;7.852;2023-02-13T05:25:34;7.40;99.90
35373;DHT22;21476;51.652;7.852;2023-02-13T05:28:00;7.30;99.90
35373;DHT22;21476;51.652;7.852;2023-02-13T05:30:25;7.40;99.90
35373;DHT22;21476;51.652;7.852;2023-02-13T05:32:51;7.40;99.90
35373;DHT22;21476;51.652;7.852;2023-02-13T05:35:20;7.40;99.90
35373;DHT22;21476;51.652;7.852;2023-02-13T05:37:45;7.40;99.90
35373;DHT22;21476;51.652;7.852;2023-02-13T05:40:12;7.40;99.90
35373;DHT22;21476;51.652;7.852;2023-02-13T05:42:38;7.40;99.90
35373;DHT22;21476;51.652;7.852;2023-02-13T05:45:05;7.50;99.90
35373;DHT22;21476;51.652;7.852;2023-02-13T05:47:30;7.40;99.90
35373;DHT22;21476;51.652;7.852;2023-02-13T05:49:56;7.40;99.90
35373;DHT22;21476;51.652;7.852;2023-02-13T05:52:22;7.40;99.90
35373;DHT22;21476;51.652;7.852;2023-02-13T05:54:50;7.40;99.90
35373;DHT22;21476;51.652;7.852;2023-02-13T05:57:17;7.40;99.90
35373;DHT22;21476;51.652;7.852;2023-02-13T05:59:42;7.30;99.90
35373;DHT22;21476;51.652;7.852;2023-02-13T06:02:08;7.40;99.90
35373;DHT22;21476;51.652;7.852;2023-02-13T06:04:34;7.30;99.90
35373;DHT22;21476;51.652;7.852;2023-02-13T06:06:59;7.30;99.90
35373;DHT22;21476;51.652;7.852;2023-02-13T06:09:25;7.30;99.90
35373;DHT22;21476;51.652;7.852;2023-02-13T06:11:51;7.30;99.90
35373;DHT22;21476;51.652;7.852;2023-02-13T06:14:16;7.30;99.90
35373;DHT22;21476;51.652;7.852;2023-02-13T06:16:42;7.30;99.90
35373;DHT22;21476;51.652;7.852;2023-02-13T06:19:11;7.30;99.90
35373;DHT22;21476;51.652;7.852;2023-02-13T06:21:36;7.30;99.90
35373;DHT22;21476;51.652;7.852;2023-02-13T06:24:06;7.30;99.90
35373;DHT22;21476;51.652;7.852;2023-02-13T06:26:33;7.30;99.90
35373;DHT22;21476;51.652;7.852;2023-02-13T06:28:59;7.30;99.90
35373;DHT22;21476;51.652;7.852;2023-02-13T06:31:24;7.30;99.90
35373;DHT22;21476;51.652;7.852;2023-02-13T06:33:50;7.40;99.90
35373;DHT22;21476;51.652;7.852;2023-02-13T06:36:16;7.40;99.90
35373;DHT22;21476;51.652;7.852;2023-02-13T06:38:41;7.40;99.90
35373;DHT22;21476;51.652;7.852;2023-02-13T06:41:07;7.50;99.90
35373;DHT22;21476;51.652;7.852;2023-02-13T06:43:34;7.50;99.90
35373;DHT22;21476;51.652;7.852;2023-02-13T06:46:06;7.40;99.90
35373;DHT22;21476;51.652;7.852;2023-02-13T06:48:32;7.40;99.90
35373;DHT22;21476;51.652;7.852;2023-02-13T06:50:58;7.30;99.90
35373;DHT22;21476;51.652;7.852;2023-02-13T06:53:26;7.30;99.90
35373;DHT22;21476;51.652;7.852;2023-02-13T06:55:53;7.40;99.90
35373;DHT22;21476;51.652;7.852;2023-02-13T06:58:20;7.40;99.90
35373;DHT22;21476;51.652;7.852;2023-02-13T07:00:46;7.40;99.90
35373;DHT22;21476;51.652;7.852;2023-02-13T07:03:12;7.40;99.90
35373;DHT22;21476;51.652;7.852;2023-02-13T07:05:42;7.40;99.90
35373;DHT22;21476;51.652;7.852;2023-02-13T07:08:09;7.40;99.90
35373;DHT22;21476;51.652;7.852;2023-02-13T07:10:39;7.40;99.90
35373;DHT22;21476;51.652;7.852;2023-02-13T07:13:06;7.50;99.90
35373;DHT22;21476;51.652;7.852;2023-02-13T07:15:32;7.50;99.90
35373;DHT22;21476;51.652;7.852;2023-02-13T07:17:58;7.50;99.90
35373;DHT22;21476;51.652;7.852;2023-02-13T07:20:25;7.40;99.90
35373;DHT22;21476;51.652;7.852;2023-02-13T07:22:51;7.40;99.90
35373;DHT22;21476;51.652;7.852;2023-02-13T07:25:17;7.40;99.90
35373;DHT22;21476;51.652;7.852;2023-02-13T07:27:43;7.50;99.90
35373;DHT22;21476;51.652;7.852;2023-02-13T07:30:09;7.50;99.90
35373;DHT22;21476;51.652;7.852;2023-02-13T07:32:35;7.50;99.90
35373;DHT22;21476;51.652;7.852;2023-02-13T07:35:01;7.50;99.90
35373;DHT22;21476;51.652;7.852;2023-02-13T07:37:27;7.50;99.90
35373;DHT22;21476;51.652;7.852;2023-02-13T07:39:53;7.50;99.90
35373;DHT22;21476;51.652;7.852;2023-02-13T07:42:19;7.50;99.90
35373;DHT22;21476;51.652;7.852;2023-02-13T07:44:44;7.50;99.90
35373;DHT22;21476;51.652;7.852;2023-02-13T07:47:10;7.50;99.90
35373;DHT22;21476;51.652;7.852;2023-02-13T07:49:36;7.60;99.90
35373;DHT22;21476;51.652;7.852;2023-02-13T07:52:02;7.60;99.90
35373;DHT22;21476;51.652;7.852;2023-02-13T07:54:29;7.60;99.90
35373;DHT22;21476;51.652;7.852;2023-02-13T07:56:54;7.60;99.90
35373;DHT22;21476;51.652;7.852;2023-02-13T07:59:20;7.70;99.90
35373;DHT22;21476;51.652;7.852;2023-02-13T08:01:45;7.80;99.90
35373;DHT22;21476;51.652;7.852;2023-02-13T08:04:11;7.80;99.90
35373;DHT22;21476;51.652;7.852;2023-02-13T08:06:40;7.90;99.90
35373;DHT22;21476;51.652;7.852;2023-02-13T08:09:06;7.80;99.90
35373;DHT22;21476;51.652;7.852;2023-02-13T08:11:52;7.90;99.90
35373;DHT22;21476;51.652;7.852;2023-02-13T08:14:25;7.80;99.90
35373;DHT22;21476;51.652;7.852;2023-02-13T08:16:51;7.90;99.90
35373;DHT22;21476;51.652;7.852;2023-02-13T08:19:17;7.90;99.90
35373;DHT22;21476;51.652;7.852;2023-02-13T08:21:43;8.00;99.90
35373;DHT22;21476;51.652;7.852;2023-02-13T08:24:10;8.00;99.90
35373;DHT22;21476;51.652;7.852;2023-02-13T08:26:36;8.00;99.90
35373;DHT22;21476;51.652;7.852;2023-02-13T08:29:02;8.10;99.90
35373;DHT22;21476;51.652;7.852;2023-02-13T08:31:28;8.20;99.90
35373;DHT22;21476;51.652;7.852;2023-02-13T08:33:55;8.20;99.90
35373;DHT22;21476;51.652;7.852;2023-02-13T08:36:22;8.30;99.90
35373;DHT22;21476;51.652;7.852;2023-02-13T08:38:47;8.50;99.90
35373;DHT22;21476;51.652;7.852;2023-02-13T08:41:14;8.60;99.90
35373;DHT22;21476;51.652;7.852;2023-02-13T08:43:39;8.70;99.90
35373;DHT22;21476;51.652;7.852;2023-02-13T08:46:05;8.90;99.90
35373;DHT22;21476;51.652;7.852;2023-02-13T08:48:31;8.80;99.90
35373;DHT22;21476;51.652;7.852;2023-02-13T08:50:56;9.00;99.90
35373;DHT22;21476;51.652;7.852;2023-02-13T08:53:22;9.30;99.90
35373;DHT22;21476;51.652;7.852;2023-02-13T08:55:55;9.70;99.90
35373;DHT22;21476;51.652;7.852;2023-02-13T08:58:21;9.90;99.90
35373;DHT22;21476;51.652;7.852;2023-02-13T09:00:47;10.30;99.90
35373;DHT22;21476;51.652;7.852;2023-02-13T09:03:13;10.60;99.90
35373;DHT22;21476;51.652;7.852;2023-02-13T09:05:39;10.60;99.90
35373;DHT22;21476;51.652;7.852;2023-02-13T09:08:05;10.90;99.90
35373;DHT22;21476;51.652;7.852;2023-02-13T09:10:31;11.20;99.90
35373;DHT22;21476;51.652;7.852;2023-02-13T09:12:57;11.20;99.90
35373;DHT22;21476;51.652;7.852;2023-02-13T09:15:23;11.00;99.90
35373;DHT22;21476;51.652;7.852;2023-02-13T09:17:49;11.90;99.90
35373;DHT22;21476;51.652;7.852;2023-02-13T09:20:14;11.80;99.90
35373;DHT22;21476;51.652;7.852;2023-02-13T09:22:41;11.40;99.90
35373;DHT22;21476;51.652;7.852;2023-02-13T09:25:07;11.60;99.90
35373;DHT22;21476;51.652;7.852;2023-02-13T09:27:36;11.80;99.90
35373;DHT22;21476;51.652;7.852;2023-02-13T09:30:13;12.30;99.90
35373;DHT22;21476;51.652;7.852;2023-02-13T09:32:57;11.80;99.90
35373;DHT22;21476;51.652;7.852;2023-02-13T09:35:22;11.60;99.90
35373;DHT22;21476;51.652;7.852;2023-02-13T09:37:48;12.50;99.90
35373;DHT22;21476;51.652;7.852;2023-02-13T09:40:22;13.00;99.90
35373;DHT22;21476;51.652;7.852;2023-02-13T09:42:50;14.00;99.90
35373;DHT22;21476;51.652;7.852;2023-02-13T09:45:20;13.80;99.90
35373;DHT22;21476;51.652;7.852;2023-02-13T09:47:47;14.10;99.90
35373;DHT22;21476;51.652;7.852;2023-02-13T09:52:43;14.30;99.90
35373;DHT22;21476;51.652;7.852;2023-02-13T09:55:18;13.80;99.90
35373;DHT22;21476;51.652;7.852;2023-02-13T09:58:14;13.80;99.90
35373;DHT22;21476;51.652;7.852;2023-02-13T10:00:47;14.30;99.90
35373;DHT22;21476;51.652;7.852;2023-02-13T10:03:35;14.70;99.90
35373;DHT22;21476;51.652;7.852;2023-02-13T10:06:16;14.80;99.90
35373;DHT22;21476;51.652;7.852;2023-02-13T10:11:58;13.80;99.90
35373;DHT22;21476;51.652;7.852;2023-02-13T10:15:02;14.30;99.90
35373;DHT22;21476;51.652;7.852;2023-02-13T10:17:34;14.30;99.90
35373;DHT22;21476;51.652;7.852;2023-02-13T10:20:09;12.90;99.90
35373;DHT22;21476;51.652;7.852;2023-02-13T10:22:44;12.50;99.90
35373;DHT22;21476;51.652;7.852;2023-02-13T10:28:08;13.30;99.90
35373;DHT22;21476;51.652;7.852;2023-02-13T10:30:42;13.60;99.90
35373;DHT22;21476;51.652;7.852;2023-02-13T10:36:24;13.40;99.90
35373;DHT22;21476;51.652;7.852;2023-02-13T10:39:01;13.20;99.90
35373;DHT22;21476;51.652;7.852;2023-02-13T10:49:26;13.00;99.90
35373;DHT22;21476;51.652;7.852;2023-02-13T10:52:14;13.10;99.90
35373;DHT22;21476;51.652;7.852;2023-02-13T10:54:50;12.90;99.90
35373;DHT22;21476;51.652;7.852;2023-02-13T11:00:15;12.80;99.90
35373;DHT22;21476;51.652;7.852;2023-02-13T11:02:42;12.60;99.90
35373;DHT22;21476;51.652;7.852;2023-02-13T11:05:38;12.50;99.90
35373;DHT22;21476;51.652;7.852;2023-02-13T11:08:23;12.70;99.90
35373;DHT22;21476;51.652;7.852;2023-02-13T11:10:49;12.60;99.90
35373;DHT22;21476;51.652;7.852;2023-02-13T11:13:19;12.20;99.90
35373;DHT22;21476;51.652;7.852;2023-02-13T11:16:01;12.10;99.90
35373;DHT22;21476;51.652;7.852;2023-02-13T11:18:31;12.00;99.90
35373;DHT22;21476;51.652;7.852;2023-02-13T11:21:20;12.00;99.90
35373;DHT22;21476;51.652;7.852;2023-02-13T11:23:50;12.30;99.90
35373;DHT22;21476;51.652;7.852;2023-02-13T11:26:33;12.40;99.90
35373;DHT22;21476;51.652;7.852;2023-02-13T11:29:00;12.10;99.90
35373;DHT22;21476;51.652;7.852;2023-02-13T11:31:33;11.80;99.90
35373;DHT22;21476;51.652;7.852;2023-02-13T11:34:24;12.00;99.90
35373;DHT22;21476;51.652;7.852;2023-02-13T11:36:51;12.00;99.90
35373;DHT22;21476;51.652;7.852;2023-02-13T11:39:19;12.00;99.90
35373;DHT22;21476;51.652;7.852;2023-02-13T11:41:46;11.80;99.90
35373;DHT22;21476;51.652;7.852;2023-02-13T11:44:22;11.80;99.90
35373;DHT22;21476;51.652;7.852;2023-02-13T11:46:54;11.80;99.90
35373;DHT22;21476;51.652;7.852;2023-02-13T11:49:26;11.90;99.90
35373;DHT22;21476;51.652;7.852;2023-02-13T11:51:54;11.80;99.90
35373;DHT22;21476;51.652;7.852;2023-02-13T11:56:54;12.00;99.90
35373;DHT22;21476;51.652;7.852;2023-02-13T11:59:25;11.80;99.90
35373;DHT22;21476;51.652;7.852;2023-02-13T12:02:07;11.60;99.90
35373;DHT22;21476;51.652;7.852;2023-02-13T12:04:37;11.60;99.90
35373;DHT22;21476;51.652;7.852;2023-02-13T12:07:22;11.80;99.90
35373;DHT22;21476;51.652;7.852;2023-02-13T12:10:14;11.60;99.90
35373;DHT22;21476;51.652;7.852;2023-02-13T12:12:53;11.70;99.90
35373;DHT22;21476;51.652;7.852;2023-02-13T12:15:25;11.70;99.90
35373;DHT22;21476;51.652;7.852;2023-02-13T12:18:45;11.80;99.90
35373;DHT22;21476;51.652;7.852;2023-02-13T12:21:40;11.50;99.90
35373;DHT22;21476;51.652;7.852;2023-02-13T12:24:21;11.40;99.90
35373;DHT22;21476;51.652;7.852;2023-02-13T12:27:11;11.50;99.90
35373;DHT22;21476;51.652;7.852;2023-02-13T12:46:55;11.60;99.90
35373;DHT22;21476;51.652;7.852;2023-02-13T12:58:33;11.60;99.90
35373;DHT22;21476;51.652;7.852;2023-02-13T13:07:23;11.50;99.90
35373;DHT22;21476;51.652;7.852;2023-02-13T13:12:44;11.40;99.90
35373;DHT22;21476;51.652;7.852;2023-02-13T13:15:25;11.30;99.90
35373;DHT22;21476;51.652;7.852;2023-02-13T13:20:57;11.50;99.90
35373;DHT22;21476;51.652;7.852;2023-02-13T13:28:53;11.60;99.90
35373;DHT22;21476;51.652;7.852;2023-02-13T13:31:20;11.50;99.90
35373;DHT22;21476;51.652;7.852;2023-02-13T13:33:48;11.50;99.90
35373;DHT22;21476;51.652;7.852;2023-02-13T13:39:05;11.60;99.90
35373;DHT22;21476;51.652;7.852;2023-02-13T13:41:46;11.70;99.90
35373;DHT22;21476;51.652;7.852;2023-02-13T13:44:37;11.50;99.90
35373;DHT22;21476;51.652;7.852;2023-02-13T13:50:00;11.40;99.90
35373;DHT22;21476;51.652;7.852;2023-02-13T14:11:51;11.20;99.90
35373;DHT22;21476;51.652;7.852;2023-02-13T14:16:55;11.00;99.90
35373;DHT22;21476;51.652;7.852;2023-02-13T14:21:55;11.40;99.90
35373;DHT22;21476;51.652;7.852;2023-02-13T14:24:40;11.40;99.90
35373;DHT22;21476;51.652;7.852;2023-02-13T14:27:29;11.40;99.90
35373;DHT22;21476;51.652;7.852;2023-02-13T14:29:55;11.30;99.90
35373;DHT22;21476;51.652;7.852;2023-02-13T14:32:35;11.30;99.90
35373;DHT22;21476;51.652;7.852;2023-02-13T14:35:13;11.30;99.90
35373;DHT22;21476;51.652;7.852;2023-02-13T14:37:53;11.20;99.90
35373;DHT22;21476;51.652;7.852;2023-02-13T14:42:58;11.20;99.90
35373;DHT22;21476;51.652;7.852;2023-02-13T14:45:30;11.20;99.90
35373;DHT22;21476;51.652;7.852;2023-02-13T14:48:02;11.10;99.90
35373;DHT22;21476;51.652;7.852;2023-02-13T14:50:46;11.00;99.90
35373;DHT22;21476;51.652;7.852;2023-02-13T14:53:26;11.00;99.90
35373;DHT22;21476;51.652;7.852;2023-02-13T14:56:05;11.00;99.90
35373;DHT22;21476;51.652;7.852;2023-02-13T14:58:38;11.00;99.90
35373;DHT22;21476;51.652;7.852;2023-02-13T15:03:43;10.90;99.90
35373;DHT22;21476;51.652;7.852;2023-02-13T15:06:18;10.90;99.90
35373;DHT22;21476;51.652;7.852;2023-02-13T15:08:50;10.90;99.90
35373;DHT22;21476;51.652;7.852;2023-02-13T15:11:35;10.70;99.90
35373;DHT22;21476;51.652;7.852;2023-02-13T15:14:15;10.70;99.90
35373;DHT22;21476;51.652;7.852;2023-02-13T15:16:42;10.70;99.90
35373;DHT22;21476;51.652;7.852;2023-02-13T15:19:20;10.70;99.90
35373;DHT22;21476;51.652;7.852;2023-02-13T15:21:50;10.70;99.90
35373;DHT22;21476;51.652;7.852;2023-02-13T15:24:16;10.60;99.90
35373;DHT22;21476;51.652;7.852;2023-02-13T15:26:54;10.70;99.90
35373;DHT22;21476;51.652;7.852;2023-02-13T15:29:21;10.70;99.90
35373;DHT22;21476;51.652;7.852;2023-02-13T15:31:46;10.60;99.90
35373;DHT22;21476;51.652;7.852;2023-02-13T15:34:27;10.60;99.90
35373;DHT22;21476;51.652;7.852;2023-02-13T15:36:53;10.60;99.90
35373;DHT22;21476;51.652;7.852;2023-02-13T15:39:26;10.50;99.90
35373;DHT22;21476;51.652;7.852;2023-02-13T15:42:00;10.50;99.90
35373;DHT22;21476;51.652;7.852;2023-02-13T15:44:34;10.40;99.90
35373;DHT22;21476;51.652;7.852;2023-02-13T15:47:16;10.40;99.90
35373;DHT22;21476;51.652;7.852;2023-02-13T15:49:44;10.40;99.90
35373;DHT22;21476;51.652;7.852;2023-02-13T15:52:28;10.40;99.90
35373;DHT22;21476;51.652;7.852;2023-02-13T15:54:55;10.30;99.90
35373;DHT22;21476;51.652;7.852;2023-02-13T15:57:22;10.20;99.90
35373;DHT22;21476;51.652;7.852;2023-02-13T15:59:49;10.20;99.90
35373;DHT22;21476;51.652;7.852;2023-02-13T16:02:23;10.30;99.90
35373;DHT22;21476;51.652;7.852;2023-02-13T16:04:52;10.30;99.90
35373;DHT22;21476;51.652;7.852;2023-02-13T16:07:18;10.20;99.90
35373;DHT22;21476;51.652;7.852;2023-02-13T16:09:45;10.10;99.90
35373;DHT22;21476;51.652;7.852;2023-02-13T16:15:00;10.00;99.90
35373;DHT22;21476;51.652;7.852;2023-02-13T16:17:37;9.90;99.90
35373;DHT22;21476;51.652;7.852;2023-02-13T16:20:16;9.90;99.90
35373;DHT22;21476;51.652;7.852;2023-02-13T16:22:44;9.70;99.90
35373;DHT22;21476;51.652;7.852;2023-02-13T16:27:49;9.70;99.90
35373;DHT22;21476;51.652;7.852;2023-02-13T16:35:44;9.50;99.90
35373;DHT22;21476;51.652;7.852;2023-02-13T16:41:02;9.50;99.90
35373;DHT22;21476;51.652;7.852;2023-02-13T16:43:44;9.40;99.90
35373;DHT22;21476;51.652;7.852;2023-02-13T16:46:36;9.30;99.90
35373;DHT22;21476;51.652;7.852;2023-02-13T16:54:26;9.00;99.90
35373;DHT22;21476;51.652;7.852;2023-02-13T16:59:27;8.90;99.90
35373;DHT22;21476;51.652;7.852;2023-02-13T17:07:29;8.70;99.90
35373;DHT22;21476;51.652;7.852;2023-02-13T17:10:16;8.60;99.90
35373;DHT22;21476;51.652;7.852;2023-02-13T17:12:43;8.50;99.90
35373;DHT22;21476;51.652;7.852;2023-02-13T17:15:15;8.40;99.90
35373;DHT22;21476;51.652;7.852;2023-02-13T17:17:41;8.50;99.90
35373;DHT22;21476;51.652;7.852;2023-02-13T17:20:12;8.40;99.90
35373;DHT22;21476;51.652;7.852;2023-02-13T17:22:43;8.30;99.90
35373;DHT22;21476;51.652;7.852;2023-02-13T17:25:42;8.20;99.90
35373;DHT22;21476;51.652;7.852;2023-02-13T17:28:16;8.10;99.90
35373;DHT22;21476;51.652;7.852;2023-02-13T17:30:44;8.10;99.90
35373;DHT22;21476;51.652;7.852;2023-02-13T17:33:18;8.00;99.90
35373;DHT22;21476;51.652;7.852;2023-02-13T17:35:59;7.90;99.90
35373;DHT22;21476;51.652;7.852;2023-02-13T17:38:24;7.90;99.90
35373;DHT22;21476;51.652;7.852;2023-02-13T17:40:50;7.80;99.90
35373;DHT22;21476;51.652;7.852;2023-02-13T17:43:17;7.70;99.90
35373;DHT22;21476;51.652;7.852;2023-02-13T17:45:44;7.60;99.90
35373;DHT22;21476;51.652;7.852;2023-02-13T17:48:10;7.40;99.90
35373;DHT22;21476;51.652;7.852;2023-02-13T17:50:37;7.30;99.90
35373;DHT22;21476;51.652;7.852;2023-02-13T17:53:05;7.20;99.90
35373;DHT22;21476;51.652;7.852;2023-02-13T17:55:32;7.20;99.90
35373;DHT22;21476;51.652;7.852;2023-02-13T17:57:58;7.10;99.90
35373;DHT22;21476;51.652;7.852;2023-02-13T18:00:29;7.00;99.90
35373;DHT22;21476;51.652;7.852;2023-02-13T18:02:56;6.90;99.90
35373;DHT22;21476;51.652;7.852;2023-02-13T18:05:22;6.80;99.90
35373;DHT22;21476;51.652;7.852;2023-02-13T18:07:48;6.80;99.90
35373;DHT22;21476;51.652;7.852;2023-02-13T18:10:16;6.70;99.90
35373;DHT22;21476;51.652;7.852;2023-02-13T18:12:42;6.60;99.90
35373;DHT22;21476;51.652;7.852;2023-02-13T18:15:09;6.50;99.90
35373;DHT22;21476;51.652;7.852;2023-02-13T18:17:35;6.50;99.90
35373;DHT22;21476;51.652;7.852;2023-02-13T18:20:01;6.40;99.90
35373;DHT22;21476;51.652;7.852;2023-02-13T18:22:27;6.40;99.90
35373;DHT22;21476;51.652;7.852;2023-02-13T18:24:53;6.30;99.90
35373;DHT22;21476;51.652;7.852;2023-02-13T18:27:19;6.20;99.90
35373;DHT22;21476;51.652;7.852;2023-02-13T18:29:44;6.10;99.90
35373;DHT22;21476;51.652;7.852;2023-02-13T18:32:10;6.00;99.90
35373;DHT22;21476;51.652;7.852;2023-02-13T18:34:37;5.90;99.90
35373;DHT22;21476;51.652;7.852;2023-02-13T18:37:03;5.90;99.90
35373;DHT22;21476;51.652;7.852;2023-02-13T18:39:30;5.80;99.90
35373;DHT22;21476;51.652;7.852;2023-02-13T18:41:55;5.70;99.90
35373;DHT22;21476;51.652;7.852;2023-02-13T18:44:21;5.70;99.90
35373;DHT22;21476;51.652;7.852;2023-02-13T18:46:47;5.70;99.90
35373;DHT22;21476;51.652;7.852;2023-02-13T18:49:12;5.70;99.90
35373;DHT22;21476;51.652;7.852;2023-02-13T18:51:39;5.70;99.90
35373;DHT22;21476;51.652;7.852;2023-02-13T18:54:04;5.60;99.90
35373;DHT22;21476;51.652;7.852;2023-02-13T18:56:30;5.60;99.90
35373;DHT22;21476;51.652;7.852;2023-02-13T18:58:56;5.50;99.90